sensor_id;sensor_type;location;lat;lon;timestamp;P1;durP1;ratioP1;P2;durP2;ratioP2
20637;SDS011;10478;49.004;8.470;2023-09-19T00:01:12;11.18;;;1.48;;
20637;SDS011;10478;49.004;8.470;2023-09-19T00:03:39;2.03;;;0.90;;
20637;SDS011;10478;49.004;8.470;2023-09-19T00:06:07;2.35;;;0.70;;
20637;SDS011;10478;49.004;8.470;2023-09-19T00:08:33;1.05;;;0.70;;
20637;SDS011;10478;49.004;8.470;2023-09-19T00:11:01;1.40;;;0.70;;
20637;SDS011;10478;49.004;8.470;2023-09-19T00:13:28;2.45;;;0.65;;
20637;SDS011;10478;49.004;8.470;2023-09-19T00:15:53;1.30;;;0.65;;
20637;SDS011;10478;49.004;8.470;2023-09-19T00:18:20;2.05;;;0.77;;
20637;SDS011;10478;49.004;8.470;2023-09-19T00:20:49;1.45;;;0.57;;
20637;SDS011;10478;49.004;8.470;2023-09-19T00:23:16;0.90;;;0.43;;
20637;SDS011;10478;49.004;8.470;2023-09-19T00:25:41;1.33;;;0.73;;
20637;SDS011;10478;49.004;8.470;2023-09-19T00:28:07;1.08;;;0.57;;
20637;SDS011;10478;49.004;8.470;2023-09-19T00:30:32;1.20;;;0.50;;
20637;SDS011;10478;49.004;8.470;2023-09-19T00:32:58;1.40;;;0.50;;
20637;SDS011;10478;49.004;8.470;2023-09-19T00:35:24;1.67;;;0.43;;
20637;SDS011;10478;49.004;8.470;2023-09-19T00:37:49;1.60;;;0.35;;
20637;SDS011;10478;49.004;8.470;2023-09-19T00:40:15;1.73;;;0.65;;
20637;SDS011;10478;49.004;8.470;2023-09-19T00:42:42;0.82;;;0.40;;
20637;SDS011;10478;49.004;8.470;2023-09-19T00:45:08;2.00;;;1.00;;
20637;SDS011;10478;49.004;8.470;2023-09-19T00:47:36;3.22;;;0.63;;
20637;SDS011;10478;49.004;8.470;2023-09-19T00:50:02;1.83;;;0.82;;
20637;SDS011;10478;49.004;8.470;2023-09-19T00:52:29;3.65;;;0.70;;
20637;SDS011;10478;49.004;8.470;2023-09-19T00:54:56;0.85;;;0.50;;
20637;SDS011;10478;49.004;8.470;2023-09-19T00:57:23;1.08;;;0.20;;
20637;SDS011;10478;49.004;8.470;2023-09-19T00:59:49;2.17;;;0.55;;
20637;SDS011;10478;49.004;8.470;2023-09-19T01:02:15;2.47;;;0.47;;
20637;SDS011;10478;49.004;8.470;2023-09-19T01:04:41;2.78;;;0.60;;
20637;SDS011;10478;49.004;8.470;2023-09-19T01:07:07;1.10;;;0.60;;
20637;SDS011;10478;49.004;8.470;2023-09-19T01:09:33;1.23;;;0.50;;
20637;SDS011;10478;49.004;8.470;2023-09-19T01:12:02;0.98;;;0.50;;
20637;SDS011;10478;49.004;8.470;2023-09-19T01:15:15;1.10;;;0.57;;
20637;SDS011;10478;49.004;8.470;2023-09-19T01:17:25;2.45;;;0.52;;
20637;SDS011;10478;49.004;8.470;2023-09-19T01:22:53;2.20;;;0.50;;
20637;SDS011;10478;49.004;8.470;2023-09-19T01:31:03;1.80;;;0.45;;
20637;SDS011;10478;49.004;8.470;2023-09-19T01:36:24;0.93;;;0.43;;
20637;SDS011;10478;49.004;8.470;2023-09-19T01:38:50;1.67;;;0.55;;
20637;SDS011;10478;49.004;8.470;2023-09-19T01:41:17;1.85;;;0.50;;
20637;SDS011;10478;49.004;8.470;2023-09-19T01:43:51;2.17;;;0.50;;
20637;SDS011;10478;49.004;8.470;2023-09-19T01:46:28;1.45;;;0.52;;
20637;SDS011;10478;49.004;8.470;2023-09-19T01:54:51;2.25;;;1.10;;
20637;SDS011;10478;49.004;8.470;2023-09-19T01:57:27;0.50;;;0.22;;
20637;SDS011;10478;49.004;8.470;2023-09-19T01:59:57;1.08;;;0.30;;
20637;SDS011;10478;49.004;8.470;2023-09-19T02:02:31;1.25;;;0.40;;
20637;SDS011;10478;49.004;8.470;2023-09-19T02:05:03;1.25;;;0.60;;
20637;SDS011;10478;49.004;8.470;2023-09-19T02:07:29;0.88;;;0.60;;
20637;SDS011;10478;49.004;8.470;2023-09-19T02:09:56;0.95;;;0.35;;
20637;SDS011;10478;49.004;8.470;2023-09-19T02:12:24;1.48;;;0.50;;
20637;SDS011;10478;49.004;8.470;2023-09-19T02:14:49;2.30;;;0.70;;
20637;SDS011;10478;49.004;8.470;2023-09-19T02:17:14;3.00;;;0.60;;
20637;SDS011;10478;49.004;8.470;2023-09-19T02:19:40;3.35;;;0.50;;
20637;SDS011;10478;49.004;8.470;2023-09-19T02:22:05;2.22;;;0.60;;
20637;SDS011;10478;49.004;8.470;2023-09-19T02:24:35;2.80;;;0.82;;
20637;SDS011;10478;49.004;8.470;2023-09-19T02:27:03;0.95;;;0.40;;
20637;SDS011;10478;49.004;8.470;2023-09-19T02:29:29;1.15;;;0.60;;
20637;SDS011;10478;49.004;8.470;2023-09-19T02:31:55;0.70;;;0.40;;
20637;SDS011;10478;49.004;8.470;2023-09-19T02:34:21;5.88;;;0.95;;
20637;SDS011;10478;49.004;8.470;2023-09-19T02:36:46;0.88;;;0.40;;
20637;SDS011;10478;49.004;8.470;2023-09-19T02:39:12;0.93;;;0.47;;
20637;SDS011;10478;49.004;8.470;2023-09-19T02:41:37;0.80;;;0.35;;
20637;SDS011;10478;49.004;8.470;2023-09-19T02:44:03;1.50;;;0.68;;
20637;SDS011;10478;49.004;8.470;2023-09-19T02:46:32;5.57;;;0.60;;
20637;SDS011;10478;49.004;8.470;2023-09-19T02:48:57;1.45;;;0.77;;
20637;SDS011;10478;49.004;8.470;2023-09-19T02:51:23;1.10;;;0.60;;
20637;SDS011;10478;49.004;8.470;2023-09-19T02:53:49;1.48;;;0.43;;
20637;SDS011;10478;49.004;8.470;2023-09-19T02:56:17;3.28;;;0.93;;
20637;SDS011;10478;49.004;8.470;2023-09-19T02:58:43;1.40;;;0.50;;
20637;SDS011;10478;49.004;8.470;2023-09-19T03:01:09;2.40;;;0.50;;
20637;SDS011;10478;49.004;8.470;2023-09-19T03:03:36;1.75;;;0.55;;
20637;SDS011;10478;49.004;8.470;2023-09-19T03:06:04;1.38;;;0.47;;
20637;SDS011;10478;49.004;8.470;2023-09-19T03:08:30;2.42;;;0.55;;
20637;SDS011;10478;49.004;8.470;2023-09-19T03:10:56;0.73;;;0.43;;
20637;SDS011;10478;49.004;8.470;2023-09-19T03:13:21;1.30;;;0.60;;
20637;SDS011;10478;49.004;8.470;2023-09-19T03:15:46;1.27;;;0.73;;
20637;SDS011;10478;49.004;8.470;2023-09-19T03:18:14;2.17;;;0.50;;
20637;SDS011;10478;49.004;8.470;2023-09-19T03:20:39;0.98;;;0.60;;
20637;SDS011;10478;49.004;8.470;2023-09-19T03:23:05;1.85;;;0.50;;
20637;SDS011;10478;49.004;8.470;2023-09-19T03:25:31;5.40;;;0.63;;
20637;SDS011;10478;49.004;8.470;2023-09-19T03:27:59;1.48;;;0.50;;
20637;SDS011;10478;49.004;8.470;2023-09-19T03:30:25;2.17;;;0.70;;
20637;SDS011;10478;49.004;8.470;2023-09-19T03:32:51;1.38;;;0.75;;
20637;SDS011;10478;49.004;8.470;2023-09-19T03:35:17;1.00;;;0.60;;
20637;SDS011;10478;49.004;8.470;2023-09-19T03:37:42;3.85;;;0.70;;
20637;SDS011;10478;49.004;8.470;2023-09-19T03:40:08;2.33;;;0.60;;
20637;SDS011;10478;49.004;8.470;2023-09-19T03:42:37;3.03;;;0.65;;
20637;SDS011;10478;49.004;8.470;2023-09-19T03:45:03;2.47;;;0.95;;
20637;SDS011;10478;49.004;8.470;2023-09-19T03:47:30;0.85;;;0.50;;
20637;SDS011;10478;49.004;8.470;2023-09-19T03:49:56;1.33;;;0.40;;
20637;SDS011;10478;49.004;8.470;2023-09-19T03:52:21;1.13;;;0.68;;
20637;SDS011;10478;49.004;8.470;2023-09-19T03:54:46;2.17;;;0.88;;
20637;SDS011;10478;49.004;8.470;2023-09-19T03:57:12;0.70;;;0.43;;
20637;SDS011;10478;49.004;8.470;2023-09-19T03:59:40;1.60;;;0.70;;
20637;SDS011;10478;49.004;8.470;2023-09-19T04:02:07;4.07;;;0.90;;
20637;SDS011;10478;49.004;8.470;2023-09-19T04:04:36;1.70;;;0.85;;
20637;SDS011;10478;49.004;8.470;2023-09-19T04:07:02;2.20;;;0.73;;
20637;SDS011;10478;49.004;8.470;2023-09-19T04:09:27;3.33;;;0.75;;
20637;SDS011;10478;49.004;8.470;2023-09-19T04:11:53;1.33;;;0.63;;
20637;SDS011;10478;49.004;8.470;2023-09-19T04:14:18;4.95;;;1.25;;
20637;SDS011;10478;49.004;8.470;2023-09-19T04:16:43;1.50;;;0.57;;
20637;SDS011;10478;49.004;8.470;2023-09-19T04:19:09;3.00;;;1.00;;
20637;SDS011;10478;49.004;8.470;2023-09-19T04:21:34;6.80;;;3.53;;
20637;SDS011;10478;49.004;8.470;2023-09-19T04:23:59;4.10;;;2.70;;
20637;SDS011;10478;49.004;8.470;2023-09-19T04:26:25;11.15;;;2.40;;
20637;SDS011;10478;49.004;8.470;2023-09-19T04:28:51;3.97;;;2.38;;
20637;SDS011;10478;49.004;8.470;2023-09-19T04:31:16;7.88;;;3.60;;
20637;SDS011;10478;49.004;8.470;2023-09-19T04:33:43;5.65;;;3.47;;
20637;SDS011;10478;49.004;8.470;2023-09-19T04:36:08;6.45;;;2.92;;
20637;SDS011;10478;49.004;8.470;2023-09-19T04:38:34;9.63;;;2.60;;
20637;SDS011;10478;49.004;8.470;2023-09-19T04:41:00;10.30;;;4.03;;
20637;SDS011;10478;49.004;8.470;2023-09-19T04:43:25;26.85;;;10.73;;
20637;SDS011;10478;49.004;8.470;2023-09-19T04:45:51;9.93;;;3.75;;
20637;SDS011;10478;49.004;8.470;2023-09-19T04:48:20;5.82;;;3.03;;
20637;SDS011;10478;49.004;8.470;2023-09-19T04:50:48;7.82;;;4.55;;
20637;SDS011;10478;49.004;8.470;2023-09-19T04:53:13;7.35;;;4.15;;
20637;SDS011;10478;49.004;8.470;2023-09-19T04:55:39;11.23;;;4.72;;
20637;SDS011;10478;49.004;8.470;2023-09-19T04:58:04;3.72;;;1.70;;
20637;SDS011;10478;49.004;8.470;2023-09-19T05:00:29;3.45;;;1.63;;
20637;SDS011;10478;49.004;8.470;2023-09-19T05:02:56;3.50;;;1.88;;
20637;SDS011;10478;49.004;8.470;2023-09-19T05:05:21;4.85;;;1.02;;
20637;SDS011;10478;49.004;8.470;2023-09-19T05:07:48;3.85;;;1.70;;
20637;SDS011;10478;49.004;8.470;2023-09-19T05:10:14;3.63;;;2.10;;
20637;SDS011;10478;49.004;8.470;2023-09-19T05:12:40;1.65;;;0.95;;
20637;SDS011;10478;49.004;8.470;2023-09-19T05:15:06;3.03;;;1.30;;
20637;SDS011;10478;49.004;8.470;2023-09-19T05:17:32;1.42;;;0.88;;
20637;SDS011;10478;49.004;8.470;2023-09-19T05:19:58;1.33;;;0.95;;
20637;SDS011;10478;49.004;8.470;2023-09-19T05:22:28;2.63;;;1.17;;
20637;SDS011;10478;49.004;8.470;2023-09-19T05:24:54;4.78;;;1.25;;
20637;SDS011;10478;49.004;8.470;2023-09-19T05:27:19;3.08;;;1.27;;
20637;SDS011;10478;49.004;8.470;2023-09-19T05:29:46;4.63;;;1.30;;
20637;SDS011;10478;49.004;8.470;2023-09-19T05:32:11;4.28;;;1.58;;
20637;SDS011;10478;49.004;8.470;2023-09-19T05:34:37;7.35;;;3.83;;
20637;SDS011;10478;49.004;8.470;2023-09-19T05:37:03;9.93;;;5.95;;
20637;SDS011;10478;49.004;8.470;2023-09-19T05:39:30;6.43;;;1.88;;
20637;SDS011;10478;49.004;8.470;2023-09-19T05:41:55;8.63;;;2.30;;
20637;SDS011;10478;49.004;8.470;2023-09-19T05:44:22;6.50;;;1.42;;
20637;SDS011;10478;49.004;8.470;2023-09-19T05:46:47;2.58;;;1.40;;
20637;SDS011;10478;49.004;8.470;2023-09-19T05:49:13;3.63;;;1.30;;
20637;SDS011;10478;49.004;8.470;2023-09-19T05:51:38;3.47;;;0.95;;
20637;SDS011;10478;49.004;8.470;2023-09-19T05:54:04;4.22;;;1.83;;
20637;SDS011;10478;49.004;8.470;2023-09-19T05:56:29;3.72;;;1.48;;
20637;SDS011;10478;49.004;8.470;2023-09-19T05:58:55;2.13;;;1.20;;
20637;SDS011;10478;49.004;8.470;2023-09-19T06:01:20;3.15;;;1.15;;
20637;SDS011;10478;49.004;8.470;2023-09-19T06:03:45;2.50;;;0.98;;
20637;SDS011;10478;49.004;8.470;2023-09-19T06:06:11;1.65;;;0.95;;
20637;SDS011;10478;49.004;8.470;2023-09-19T06:08:36;2.78;;;1.20;;
20637;SDS011;10478;49.004;8.470;2023-09-19T06:11:01;2.97;;;1.27;;
20637;SDS011;10478;49.004;8.470;2023-09-19T06:13:30;3.15;;;1.30;;
20637;SDS011;10478;49.004;8.470;2023-09-19T06:15:57;2.67;;;0.95;;
20637;SDS011;10478;49.004;8.470;2023-09-19T06:18:24;2.58;;;0.90;;
20637;SDS011;10478;49.004;8.470;2023-09-19T06:20:51;4.32;;;1.48;;
20637;SDS011;10478;49.004;8.470;2023-09-19T06:23:17;2.80;;;1.48;;
20637;SDS011;10478;49.004;8.470;2023-09-19T06:25:43;4.25;;;1.10;;
20637;SDS011;10478;49.004;8.470;2023-09-19T06:28:08;3.65;;;0.73;;
20637;SDS011;10478;49.004;8.470;2023-09-19T06:30:37;8.45;;;1.45;;
20637;SDS011;10478;49.004;8.470;2023-09-19T06:33:05;1.52;;;0.85;;
20637;SDS011;10478;49.004;8.470;2023-09-19T06:35:31;3.00;;;1.45;;
20637;SDS011;10478;49.004;8.470;2023-09-19T06:37:57;3.53;;;1.00;;
20637;SDS011;10478;49.004;8.470;2023-09-19T06:40:23;2.45;;;1.27;;
20637;SDS011;10478;49.004;8.470;2023-09-19T06:42:50;4.95;;;0.98;;
20637;SDS011;10478;49.004;8.470;2023-09-19T06:45:17;5.07;;;1.23;;
20637;SDS011;10478;49.004;8.470;2023-09-19T06:47:43;4.40;;;1.23;;
20637;SDS011;10478;49.004;8.470;2023-09-19T06:50:15;2.78;;;1.13;;
20637;SDS011;10478;49.004;8.470;2023-09-19T06:52:46;2.15;;;1.23;;
20637;SDS011;10478;49.004;8.470;2023-09-19T06:55:14;5.82;;;1.25;;
20637;SDS011;10478;49.004;8.470;2023-09-19T06:57:41;3.80;;;1.45;;
20637;SDS011;10478;49.004;8.470;2023-09-19T07:00:08;4.00;;;1.25;;
20637;SDS011;10478;49.004;8.470;2023-09-19T07:02:40;6.20;;;1.35;;
20637;SDS011;10478;49.004;8.470;2023-09-19T07:05:06;3.97;;;1.45;;
20637;SDS011;10478;49.004;8.470;2023-09-19T07:07:32;6.32;;;2.33;;
20637;SDS011;10478;49.004;8.470;2023-09-19T07:09:59;6.80;;;1.58;;
20637;SDS011;10478;49.004;8.470;2023-09-19T07:12:25;3.63;;;1.13;;
20637;SDS011;10478;49.004;8.470;2023-09-19T07:14:51;2.63;;;0.82;;
20637;SDS011;10478;49.004;8.470;2023-09-19T07:17:16;3.58;;;1.30;;
20637;SDS011;10478;49.004;8.470;2023-09-19T07:19:44;2.63;;;1.10;;
20637;SDS011;10478;49.004;8.470;2023-09-19T07:22:10;3.60;;;1.33;;
20637;SDS011;10478;49.004;8.470;2023-09-19T07:24:35;1.73;;;0.95;;
20637;SDS011;10478;49.004;8.470;2023-09-19T07:27:01;3.63;;;1.42;;
20637;SDS011;10478;49.004;8.470;2023-09-19T07:29:27;2.60;;;1.10;;
20637;SDS011;10478;49.004;8.470;2023-09-19T07:31:52;2.88;;;1.15;;
20637;SDS011;10478;49.004;8.470;2023-09-19T07:34:18;3.65;;;1.10;;
20637;SDS011;10478;49.004;8.470;2023-09-19T07:36:43;3.10;;;1.13;;
20637;SDS011;10478;49.004;8.470;2023-09-19T07:39:08;2.13;;;1.17;;
20637;SDS011;10478;49.004;8.470;2023-09-19T07:41:34;5.50;;;1.27;;
20637;SDS011;10478;49.004;8.470;2023-09-19T07:43:59;2.33;;;1.58;;
20637;SDS011;10478;49.004;8.470;2023-09-19T07:46:24;5.28;;;2.13;;
20637;SDS011;10478;49.004;8.470;2023-09-19T07:48:50;5.00;;;1.70;;
20637;SDS011;10478;49.004;8.470;2023-09-19T07:51:16;2.67;;;1.00;;
20637;SDS011;10478;49.004;8.470;2023-09-19T07:53:41;4.30;;;1.17;;
20637;SDS011;10478;49.004;8.470;2023-09-19T07:56:07;2.28;;;0.95;;
20637;SDS011;10478;49.004;8.470;2023-09-19T07:58:34;5.20;;;1.38;;
20637;SDS011;10478;49.004;8.470;2023-09-19T08:01:07;7.18;;;1.45;;
20637;SDS011;10478;49.004;8.470;2023-09-19T08:03:34;3.85;;;1.10;;
20637;SDS011;10478;49.004;8.470;2023-09-19T08:06:00;3.33;;;1.50;;
20637;SDS011;10478;49.004;8.470;2023-09-19T08:08:25;3.72;;;0.95;;
20637;SDS011;10478;49.004;8.470;2023-09-19T08:10:55;4.25;;;1.05;;
20637;SDS011;10478;49.004;8.470;2023-09-19T08:13:21;3.05;;;1.02;;
20637;SDS011;10478;49.004;8.470;2023-09-19T08:15:47;1.73;;;1.02;;
20637;SDS011;10478;49.004;8.470;2023-09-19T08:18:13;2.65;;;1.13;;
20637;SDS011;10478;49.004;8.470;2023-09-19T08:20:39;3.40;;;0.73;;
20637;SDS011;10478;49.004;8.470;2023-09-19T08:23:05;6.15;;;1.10;;
20637;SDS011;10478;49.004;8.470;2023-09-19T08:25:30;2.03;;;1.00;;
20637;SDS011;10478;49.004;8.470;2023-09-19T08:27:56;4.72;;;0.90;;
20637;SDS011;10478;49.004;8.470;2023-09-19T08:30:23;4.43;;;1.10;;
20637;SDS011;10478;49.004;8.470;2023-09-19T08:32:49;2.80;;;0.90;;
20637;SDS011;10478;49.004;8.470;2023-09-19T08:35:23;2.30;;;0.85;;
20637;SDS011;10478;49.004;8.470;2023-09-19T08:37:48;2.33;;;0.80;;
20637;SDS011;10478;49.004;8.470;2023-09-19T08:40:14;6.30;;;1.02;;
20637;SDS011;10478;49.004;8.470;2023-09-19T08:42:52;1.75;;;1.00;;
20637;SDS011;10478;49.004;8.470;2023-09-19T08:45:19;1.05;;;0.47;;
20637;SDS011;10478;49.004;8.470;2023-09-19T08:48:30;4.00;;;1.08;;
20637;SDS011;10478;49.004;8.470;2023-09-19T08:50:51;3.45;;;0.80;;
20637;SDS011;10478;49.004;8.470;2023-09-19T08:53:26;1.88;;;0.80;;
20637;SDS011;10478;49.004;8.470;2023-09-19T08:55:55;1.15;;;0.77;;
20637;SDS011;10478;49.004;8.470;2023-09-19T08:58:22;4.15;;;0.60;;
20637;SDS011;10478;49.004;8.470;2023-09-19T09:00:53;1.40;;;0.63;;
20637;SDS011;10478;49.004;8.470;2023-09-19T09:03:19;1.70;;;0.73;;
20637;SDS011;10478;49.004;8.470;2023-09-19T09:05:46;2.88;;;1.00;;
20637;SDS011;10478;49.004;8.470;2023-09-19T09:08:12;3.20;;;0.60;;
20637;SDS011;10478;49.004;8.470;2023-09-19T09:10:38;1.80;;;0.73;;
20637;SDS011;10478;49.004;8.470;2023-09-19T09:13:05;2.58;;;1.05;;
20637;SDS011;10478;49.004;8.470;2023-09-19T09:15:31;3.25;;;0.60;;
20637;SDS011;10478;49.004;8.470;2023-09-19T09:18:00;1.38;;;0.65;;
20637;SDS011;10478;49.004;8.470;2023-09-19T09:20:27;9.50;;;0.80;;
20637;SDS011;10478;49.004;8.470;2023-09-19T09:22:56;4.82;;;1.17;;
20637;SDS011;10478;49.004;8.470;2023-09-19T09:28:21;5.93;;;1.08;;
20637;SDS011;10478;49.004;8.470;2023-09-19T09:30:48;2.55;;;0.65;;
20637;SDS011;10478;49.004;8.470;2023-09-19T09:33:14;2.05;;;0.75;;
20637;SDS011;10478;49.004;8.470;2023-09-19T09:35:47;5.90;;;0.75;;
20637;SDS011;10478;49.004;8.470;2023-09-19T09:38:13;2.92;;;0.63;;
20637;SDS011;10478;49.004;8.470;2023-09-19T09:40:51;3.35;;;0.80;;
20637;SDS011;10478;49.004;8.470;2023-09-19T09:46:06;1.45;;;0.40;;
20637;SDS011;10478;49.004;8.470;2023-09-19T09:48:36;1.75;;;0.55;;
20637;SDS011;10478;49.004;8.470;2023-09-19T09:51:04;4.88;;;0.95;;
20637;SDS011;10478;49.004;8.470;2023-09-19T09:53:32;2.53;;;0.95;;
20637;SDS011;10478;49.004;8.470;2023-09-19T09:56:02;2.03;;;0.52;;
20637;SDS011;10478;49.004;8.470;2023-09-19T10:01:20;1.42;;;0.60;;
20637;SDS011;10478;49.004;8.470;2023-09-19T10:03:51;2.45;;;0.60;;
20637;SDS011;10478;49.004;8.470;2023-09-19T10:06:22;4.43;;;0.93;;
20637;SDS011;10478;49.004;8.470;2023-09-19T10:11:38;3.00;;;0.68;;
20637;SDS011;10478;49.004;8.470;2023-09-19T10:14:08;5.35;;;1.58;;
20637;SDS011;10478;49.004;8.470;2023-09-19T10:16:34;3.45;;;1.20;;
20637;SDS011;10478;49.004;8.470;2023-09-19T10:19:01;5.05;;;1.83;;
20637;SDS011;10478;49.004;8.470;2023-09-19T10:21:28;1.95;;;0.88;;
20637;SDS011;10478;49.004;8.470;2023-09-19T10:23:55;3.45;;;0.60;;
20637;SDS011;10478;49.004;8.470;2023-09-19T10:26:24;3.03;;;0.70;;
20637;SDS011;10478;49.004;8.470;2023-09-19T10:28:51;1.98;;;0.82;;
20637;SDS011;10478;49.004;8.470;2023-09-19T10:31:21;1.83;;;0.70;;
20637;SDS011;10478;49.004;8.470;2023-09-19T10:33:49;2.33;;;0.70;;
20637;SDS011;10478;49.004;8.470;2023-09-19T10:36:14;3.10;;;0.60;;
20637;SDS011;10478;49.004;8.470;2023-09-19T10:38:40;2.83;;;1.10;;
20637;SDS011;10478;49.004;8.470;2023-09-19T10:41:08;3.78;;;0.70;;
20637;SDS011;10478;49.004;8.470;2023-09-19T10:43:35;1.30;;;0.50;;
20637;SDS011;10478;49.004;8.470;2023-09-19T10:46:06;1.83;;;0.45;;
20637;SDS011;10478;49.004;8.470;2023-09-19T10:48:32;2.90;;;0.80;;
20637;SDS011;10478;49.004;8.470;2023-09-19T10:56:27;3.22;;;0.63;;
20637;SDS011;10478;49.004;8.470;2023-09-19T10:59:07;2.42;;;0.57;;
20637;SDS011;10478;49.004;8.470;2023-09-19T11:07:13;6.05;;;0.60;;
20637;SDS011;10478;49.004;8.470;2023-09-19T11:12:12;1.40;;;0.50;;
20637;SDS011;10478;49.004;8.470;2023-09-19T11:15:10;1.98;;;0.80;;
20637;SDS011;10478;49.004;8.470;2023-09-19T11:26:51;4.93;;;0.73;;
20637;SDS011;10478;49.004;8.470;2023-09-19T11:29:25;1.80;;;0.70;;
20637;SDS011;10478;49.004;8.470;2023-09-19T11:31:50;1.60;;;0.80;;
20637;SDS011;10478;49.004;8.470;2023-09-19T11:37:00;1.38;;;0.40;;
20637;SDS011;10478;49.004;8.470;2023-09-19T11:39:28;1.55;;;0.60;;
20637;SDS011;10478;49.004;8.470;2023-09-19T11:41:55;3.63;;;1.17;;
20637;SDS011;10478;49.004;8.470;2023-09-19T11:44:31;2.75;;;0.68;;
20637;SDS011;10478;49.004;8.470;2023-09-19T11:46:59;4.05;;;0.80;;
20637;SDS011;10478;49.004;8.470;2023-09-19T11:49:28;2.28;;;0.93;;
20637;SDS011;10478;49.004;8.470;2023-09-19T11:51:55;2.67;;;1.02;;
20637;SDS011;10478;49.004;8.470;2023-09-19T11:54:21;2.13;;;0.80;;
20637;SDS011;10478;49.004;8.470;2023-09-19T11:56:53;4.93;;;0.90;;
20637;SDS011;10478;49.004;8.470;2023-09-19T11:59:23;1.42;;;0.60;;
20637;SDS011;10478;49.004;8.470;2023-09-19T12:01:56;1.95;;;0.70;;
20637;SDS011;10478;49.004;8.470;2023-09-19T12:04:44;0.80;;;0.50;;
20637;SDS011;10478;49.004;8.470;2023-09-19T12:07:13;2.50;;;0.93;;
20637;SDS011;10478;49.004;8.470;2023-09-19T12:09:44;2.67;;;0.70;;
20637;SDS011;10478;49.004;8.470;2023-09-19T12:12:22;4.40;;;0.90;;
20637;SDS011;10478;49.004;8.470;2023-09-19T12:14:52;2.00;;;0.80;;
20637;SDS011;10478;49.004;8.470;2023-09-19T12:17:18;3.72;;;0.80;;
20637;SDS011;10478;49.004;8.470;2023-09-19T12:19:53;1.50;;;0.85;;
20637;SDS011;10478;49.004;8.470;2023-09-19T12:22:20;4.50;;;1.10;;
20637;SDS011;10478;49.004;8.470;2023-09-19T12:24:46;1.55;;;0.93;;
20637;SDS011;10478;49.004;8.470;2023-09-19T12:27:11;2.22;;;1.00;;
20637;SDS011;10478;49.004;8.470;2023-09-19T12:32:14;1.80;;;0.70;;
20637;SDS011;10478;49.004;8.470;2023-09-19T12:34:41;1.35;;;0.82;;
20637;SDS011;10478;49.004;8.470;2023-09-19T12:37:11;1.08;;;0.60;;
20637;SDS011;10478;49.004;8.470;2023-09-19T12:39:42;1.77;;;0.57;;
20637;SDS011;10478;49.004;8.470;2023-09-19T12:42:12;1.42;;;0.50;;
20637;SDS011;10478;49.004;8.470;2023-09-19T12:44:45;1.15;;;0.70;;
20637;SDS011;10478;49.004;8.470;2023-09-19T12:47:18;1.25;;;0.73;;
20637;SDS011;10478;49.004;8.470;2023-09-19T12:52:38;1.88;;;0.80;;
20637;SDS011;10478;49.004;8.470;2023-09-19T12:55:05;1.00;;;0.50;;
20637;SDS011;10478;49.004;8.470;2023-09-19T12:57:32;3.78;;;0.80;;
20637;SDS011;10478;49.004;8.470;2023-09-19T13:00:01;0.93;;;0.45;;
20637;SDS011;10478;49.004;8.470;2023-09-19T13:02:27;1.52;;;0.65;;
20637;SDS011;10478;49.004;8.470;2023-09-19T13:04:53;1.83;;;0.45;;
20637;SDS011;10478;49.004;8.470;2023-09-19T13:10:10;3.85;;;0.80;;
20637;SDS011;10478;49.004;8.470;2023-09-19T13:12:36;1.08;;;0.47;;
20637;SDS011;10478;49.004;8.470;2023-09-19T13:15:07;2.85;;;0.60;;
20637;SDS011;10478;49.004;8.470;2023-09-19T13:17:43;1.48;;;0.63;;
20637;SDS011;10478;49.004;8.470;2023-09-19T13:20:20;4.85;;;0.63;;
20637;SDS011;10478;49.004;8.470;2023-09-19T13:22:49;1.20;;;0.57;;
20637;SDS011;10478;49.004;8.470;2023-09-19T13:25:18;1.45;;;0.65;;
20637;SDS011;10478;49.004;8.470;2023-09-19T13:27:48;3.40;;;0.93;;
20637;SDS011;10478;49.004;8.470;2023-09-19T13:30:19;1.33;;;0.75;;
20637;SDS011;10478;49.004;8.470;2023-09-19T13:32:45;1.65;;;0.85;;
20637;SDS011;10478;49.004;8.470;2023-09-19T13:35:12;1.33;;;0.40;;
20637;SDS011;10478;49.004;8.470;2023-09-19T13:37:38;1.17;;;0.40;;
20637;SDS011;10478;49.004;8.470;2023-09-19T13:40:08;1.50;;;0.70;;
20637;SDS011;10478;49.004;8.470;2023-09-19T13:42:36;1.13;;;0.60;;
20637;SDS011;10478;49.004;8.470;2023-09-19T13:45:02;1.63;;;0.80;;
20637;SDS011;10478;49.004;8.470;2023-09-19T13:47:29;2.63;;;0.77;;
20637;SDS011;10478;49.004;8.470;2023-09-19T13:49:55;3.50;;;1.08;;
20637;SDS011;10478;49.004;8.470;2023-09-19T13:52:20;0.65;;;0.43;;
20637;SDS011;10478;49.004;8.470;2023-09-19T13:54:47;1.98;;;0.70;;
20637;SDS011;10478;49.004;8.470;2023-09-19T13:57:13;2.20;;;0.77;;
20637;SDS011;10478;49.004;8.470;2023-09-19T13:59:39;1.02;;;0.50;;
20637;SDS011;10478;49.004;8.470;2023-09-19T14:02:04;1.05;;;0.70;;
20637;SDS011;10478;49.004;8.470;2023-09-19T14:04:30;3.78;;;0.70;;
20637;SDS011;10478;49.004;8.470;2023-09-19T14:06:56;3.58;;;0.45;;
20637;SDS011;10478;49.004;8.470;2023-09-19T14:09:22;0.70;;;0.40;;
20637;SDS011;10478;49.004;8.470;2023-09-19T14:11:48;1.27;;;0.52;;
20637;SDS011;10478;49.004;8.470;2023-09-19T14:14:14;3.17;;;1.63;;
20637;SDS011;10478;49.004;8.470;2023-09-19T14:16:40;2.97;;;1.70;;
20637;SDS011;10478;49.004;8.470;2023-09-19T14:19:06;5.88;;;3.90;;
20637;SDS011;10478;49.004;8.470;2023-09-19T14:21:33;7.13;;;4.38;;
20637;SDS011;10478;49.004;8.470;2023-09-19T14:23:58;12.57;;;5.60;;
20637;SDS011;10478;49.004;8.470;2023-09-19T14:26:23;9.35;;;5.20;;
20637;SDS011;10478;49.004;8.470;2023-09-19T14:28:49;9.88;;;5.38;;
20637;SDS011;10478;49.004;8.470;2023-09-19T14:31:14;8.20;;;4.55;;
20637;SDS011;10478;49.004;8.470;2023-09-19T14:33:40;8.00;;;5.40;;
20637;SDS011;10478;49.004;8.470;2023-09-19T14:36:06;14.32;;;9.07;;
20637;SDS011;10478;49.004;8.470;2023-09-19T14:38:34;9.82;;;5.32;;
20637;SDS011;10478;49.004;8.470;2023-09-19T14:41:04;7.30;;;4.22;;
20637;SDS011;10478;49.004;8.470;2023-09-19T14:43:30;4.97;;;2.47;;
20637;SDS011;10478;49.004;8.470;2023-09-19T14:45:56;3.53;;;2.33;;
20637;SDS011;10478;49.004;8.470;2023-09-19T14:48:24;2.50;;;1.60;;
20637;SDS011;10478;49.004;8.470;2023-09-19T14:50:51;3.97;;;1.92;;
20637;SDS011;10478;49.004;8.470;2023-09-19T14:53:17;3.08;;;1.75;;
20637;SDS011;10478;49.004;8.470;2023-09-19T14:55:43;1.80;;;1.38;;
20637;SDS011;10478;49.004;8.470;2023-09-19T14:58:10;4.20;;;1.70;;
20637;SDS011;10478;49.004;8.470;2023-09-19T15:00:36;6.32;;;2.28;;
20637;SDS011;10478;49.004;8.470;2023-09-19T15:03:01;3.80;;;2.13;;
20637;SDS011;10478;49.004;8.470;2023-09-19T15:05:27;4.95;;;1.60;;
20637;SDS011;10478;49.004;8.470;2023-09-19T15:07:54;2.20;;;1.58;;
20637;SDS011;10478;49.004;8.470;2023-09-19T15:10:20;2.38;;;1.10;;
20637;SDS011;10478;49.004;8.470;2023-09-19T15:12:47;2.08;;;1.00;;
20637;SDS011;10478;49.004;8.470;2023-09-19T15:15:13;2.83;;;1.33;;
20637;SDS011;10478;49.004;8.470;2023-09-19T15:17:38;2.13;;;0.70;;
20637;SDS011;10478;49.004;8.470;2023-09-19T15:20:03;1.95;;;0.85;;
20637;SDS011;10478;49.004;8.470;2023-09-19T15:22:31;1.35;;;0.88;;
20637;SDS011;10478;49.004;8.470;2023-09-19T15:24:57;1.33;;;0.80;;
20637;SDS011;10478;49.004;8.470;2023-09-19T15:27:22;1.45;;;0.60;;
20637;SDS011;10478;49.004;8.470;2023-09-19T15:29:48;0.73;;;0.55;;
20637;SDS011;10478;49.004;8.470;2023-09-19T15:32:13;2.70;;;1.00;;
20637;SDS011;10478;49.004;8.470;2023-09-19T15:34:38;5.95;;;3.22;;
20637;SDS011;10478;49.004;8.470;2023-09-19T15:37:04;14.88;;;8.38;;
20637;SDS011;10478;49.004;8.470;2023-09-19T15:39:30;5.05;;;2.80;;
20637;SDS011;10478;49.004;8.470;2023-09-19T15:41:58;8.48;;;4.18;;
20637;SDS011;10478;49.004;8.470;2023-09-19T15:44:24;6.70;;;4.78;;
20637;SDS011;10478;49.004;8.470;2023-09-19T15:46:51;4.88;;;2.25;;
20637;SDS011;10478;49.004;8.470;2023-09-19T15:49:17;4.50;;;2.60;;
20637;SDS011;10478;49.004;8.470;2023-09-19T15:51:42;6.38;;;4.53;;